createdAt,value
2018-09-24T00:02:07.967Z,44.11
2018-09-24T00:04:37.835Z,43.89
2018-09-24T00:07:07.689Z,44.28
2018-09-24T00:09:37.665Z,43.56
2018-09-24T00:12:07.598Z,44.10
2018-09-24T00:14:37.559Z,44.81
2018-09-24T00:17:07.386Z,44.24
2018-09-24T00:19:37.218Z,44.05
2018-09-24T00:22:07.045Z,43.93
2018-09-24T00:24:36.862Z,43.97
2018-09-24T00:27:06.784Z,44.26
2018-09-24T00:29:37.141Z,44.35
2018-09-24T00:32:06.868Z,44.39
2018-09-24T00:34:36.766Z,44.53
2018-09-24T00:37:06.588Z,43.89
2018-09-24T00:39:36.357Z,44.09
2018-09-24T00:42:06.315Z,44.14
2018-09-24T00:44:36.223Z,43.93
2018-09-24T00:47:06.166Z,44.67
2018-09-24T00:49:36.589Z,44.44
2018-09-24T00:52:06.380Z,44.65
2018-09-24T00:54:36.226Z,45.41
2018-09-24T00:57:06.077Z,47.67
2018-09-24T00:59:35.877Z,45.81
2018-09-24T01:02:05.722Z,45.35
2018-09-24T01:04:36.168Z,45.03
2018-09-24T01:07:05.965Z,45.07
2018-09-24T01:09:35.699Z,46.46
2018-09-24T01:12:07.252Z,46.29
2018-09-24T01:14:37.668Z,46.22
2018-09-24T01:17:07.504Z,46.02
2018-09-24T01:19:37.375Z,46.43
2018-09-24T01:22:07.388Z,47.84
2018-09-24T01:24:37.381Z,49.64
2018-09-24T01:27:07.363Z,49.22
2018-09-24T01:29:37.121Z,49.08
2018-09-24T01:32:07.402Z,49.63
2018-09-24T01:34:37.999Z,50.09
2018-09-24T01:37:07.881Z,50.38
2018-09-24T01:39:37.666Z,50.72
2018-09-24T01:42:07.455Z,47.96
2018-09-24T01:44:37.239Z,47.53
2018-09-24T01:47:07.422Z,47.65
2018-09-24T01:49:37.213Z,46.77
2018-09-24T01:52:07.182Z,49.16
2018-09-24T01:54:36.957Z,48.92
2018-09-24T01:57:13.734Z,47.55
2018-09-24T01:59:49.643Z,49.54
2018-09-24T02:02:19.642Z,47.81
2018-09-24T02:04:50.684Z,48.61
2018-09-24T02:07:20.927Z,49.56
2018-09-24T02:09:50.750Z,50.80
2018-09-24T02:12:20.627Z,51.65
2018-09-24T02:14:51.210Z,50.04
2018-09-24T02:17:23.086Z,50.06
2018-09-24T02:19:53.312Z,48.52
2018-09-24T02:22:30.315Z,51.13
2018-09-24T02:25:01.230Z,48.95
2018-09-24T02:27:31.222Z,50.06
2018-09-24T02:30:01.171Z,49.02
2018-09-24T02:32:31.384Z,48.43
2018-09-24T02:35:01.644Z,48.17
2018-09-24T02:37:31.539Z,51.37
2018-09-24T02:40:01.515Z,49.75
2018-09-24T02:42:31.241Z,49.47
2018-09-24T02:45:01.164Z,48.82
2018-09-24T02:47:33.436Z,51.46
2018-09-24T02:50:04.184Z,49.97
2018-09-24T02:52:34.123Z,49.36
2018-09-24T02:55:09.336Z,49.74
2018-09-24T02:57:39.224Z,50.32
2018-09-24T03:00:09.028Z,50.48
2018-09-24T03:02:39.401Z,50.09
2018-09-24T03:05:09.750Z,50.21
2018-09-24T03:07:39.576Z,48.81
2018-09-24T03:10:09.341Z,49.08
2018-09-24T03:12:39.700Z,48.65
2018-09-24T03:15:09.463Z,48.90
2018-09-24T03:17:39.420Z,49.77
2018-09-24T03:20:09.245Z,49.82
2018-09-24T03:22:39.177Z,49.59
2018-09-24T03:25:09.302Z,50.13
2018-09-24T03:27:39.089Z,49.77
2018-09-24T03:30:08.901Z,49.24
2018-09-24T03:32:42.162Z,49.44
2018-09-24T03:35:12.399Z,51.17
2018-09-24T03:37:42.188Z,51.79
2018-09-24T03:40:12.103Z,52.59
2018-09-24T03:42:42.020Z,51.22
2018-09-24T03:45:11.822Z,51.30
2018-09-24T03:47:41.691Z,51.79
2018-09-24T03:50:11.418Z,54.90
2018-09-24T03:52:41.313Z,53.69
2018-09-24T03:55:11.090Z,53.13
2018-09-24T03:57:41.272Z,51.15
2018-09-24T04:00:11.131Z,50.93
2018-09-24T04:02:41.733Z,50.73
2018-09-24T04:05:17.461Z,50.91
2018-09-24T04:07:52.231Z,51.23
2018-09-24T04:10:27.144Z,50.64
2018-09-24T04:13:02.203Z,51.23
2018-09-24T04:15:37.448Z,50.81
2018-09-24T04:18:12.473Z,50.39
2018-09-24T04:20:47.426Z,51.30
2018-09-24T04:23:22.269Z,51.31
2018-09-24T04:25:57.765Z,50.53
2018-09-24T04:28:32.739Z,49.70
2018-09-24T04:31:07.676Z,50.07
2018-09-24T04:33:42.823Z,49.86
2018-09-24T04:36:18.330Z,50.00
2018-09-24T04:38:53.156Z,50.19
2018-09-24T04:41:28.044Z,50.12
2018-09-24T04:44:02.747Z,50.41
2018-09-24T04:46:37.766Z,50.83
2018-09-24T04:49:12.626Z,50.09
2018-09-24T04:51:47.541Z,49.57
2018-09-24T04:54:22.563Z,49.60
2018-09-24T04:56:58.231Z,50.30
2018-09-24T04:59:32.972Z,51.85
2018-09-24T05:02:07.852Z,51.72
2018-09-24T05:04:42.847Z,50.54
2018-09-24T05:07:17.565Z,51.81
2018-09-24T05:09:52.447Z,51.04
2018-09-24T05:12:27.118Z,52.38
2018-09-24T05:15:01.876Z,51.43
2018-09-24T05:17:37.509Z,50.29
2018-09-24T05:20:12.248Z,49.74
2018-09-24T05:22:47.073Z,50.76
2018-09-24T05:25:22.024Z,50.31
2018-09-24T05:27:57.591Z,50.29
2018-09-24T05:30:32.425Z,51.33
2018-09-24T05:33:07.404Z,52.13
2018-09-24T05:35:42.279Z,51.83
2018-09-24T05:38:17.346Z,51.30
2018-09-24T05:40:52.106Z,51.70
2018-09-24T05:43:27.078Z,51.04
2018-09-24T05:46:02.546Z,52.40
2018-09-24T05:48:37.395Z,52.34
2018-09-24T05:51:12.939Z,52.86
2018-09-24T05:53:47.626Z,52.67
2018-09-24T05:56:22.406Z,51.25
2018-09-24T05:58:58.100Z,50.21
2018-09-24T06:01:33.060Z,49.23
2018-09-24T06:04:07.891Z,48.28
2018-09-24T06:06:42.823Z,45.41
2018-09-24T06:09:17.923Z,43.86
2018-09-24T06:11:53.002Z,45.90
2018-09-24T06:14:27.660Z,45.00
2018-09-24T06:17:02.634Z,44.71
2018-09-24T06:19:37.660Z,43.83
2018-09-24T06:22:12.545Z,43.43
2018-09-24T06:24:47.650Z,42.79
2018-09-24T06:27:22.513Z,40.54
2018-09-24T06:29:57.542Z,41.65
2018-09-24T06:32:32.652Z,41.61
2018-09-24T06:35:07.531Z,39.19
2018-09-24T06:37:42.270Z,39.65
2018-09-24T06:40:18.230Z,38.84
2018-09-24T06:42:53.158Z,37.47
2018-09-24T06:45:28.035Z,35.58
2018-09-24T06:48:02.930Z,36.71
2018-09-24T06:50:38.869Z,35.67
2018-09-24T06:53:13.692Z,35.20
2018-09-24T06:55:48.566Z,33.47
2018-09-24T06:58:23.435Z,33.30
2018-09-24T07:00:58.896Z,33.74
2018-09-24T07:03:33.839Z,35.15
2018-09-24T07:06:08.796Z,34.16
2018-09-24T07:08:43.697Z,33.89
2018-09-24T07:11:19.613Z,33.37
2018-09-24T07:13:54.446Z,33.23
2018-09-24T07:16:29.263Z,32.54
2018-09-24T07:19:04.031Z,31.54
2018-09-24T07:21:39.384Z,30.75
2018-09-24T07:24:14.166Z,30.50
2018-09-24T07:26:49.009Z,29.83
2018-09-24T07:29:23.921Z,30.29
2018-09-24T07:31:59.527Z,30.26
2018-09-24T07:34:34.316Z,30.81
2018-09-24T07:37:09.383Z,28.48
2018-09-24T07:39:44.504Z,29.42
2018-09-24T07:42:20.033Z,28.65
2018-09-24T07:44:54.910Z,28.86
2018-09-24T07:47:29.592Z,27.87
2018-09-24T07:50:04.462Z,26.48
2018-09-24T07:52:40.346Z,26.55
2018-09-24T07:55:15.142Z,25.48
2018-09-24T07:57:52.329Z,26.15
2018-09-24T08:00:27.238Z,26.49
2018-09-24T08:03:03.306Z,27.12
2018-09-24T08:05:38.150Z,26.00
2018-09-24T08:08:12.824Z,25.22
2018-09-24T08:10:47.662Z,25.55
2018-09-24T08:13:23.217Z,25.90
2018-09-24T08:15:58.030Z,24.79
2018-09-24T08:18:32.853Z,24.61
2018-09-24T08:21:07.668Z,23.03
2018-09-24T08:23:42.861Z,22.67
2018-09-24T08:26:17.738Z,23.01
2018-09-24T08:28:52.519Z,23.44
2018-09-24T08:31:27.301Z,23.10
2018-09-24T08:34:02.826Z,23.92
2018-09-24T08:36:37.661Z,22.71
2018-09-24T08:39:13.760Z,23.51
2018-09-24T08:41:48.964Z,23.55
2018-09-24T08:44:24.727Z,22.01
2018-09-24T08:46:59.561Z,21.26
2018-09-24T08:49:34.418Z,22.70
2018-09-24T08:52:09.193Z,21.47
2018-09-24T08:54:44.433Z,20.56
2018-09-24T08:57:19.411Z,21.25
2018-09-24T08:59:54.284Z,20.78
2018-09-24T09:02:29.138Z,20.31
2018-09-24T09:05:04.748Z,20.82
2018-09-24T09:07:39.644Z,19.14
2018-09-24T09:10:14.456Z,19.61
2018-09-24T09:12:49.483Z,20.42
2018-09-24T09:15:24.990Z,20.28
2018-09-24T09:18:00.128Z,19.10
2018-09-24T09:20:34.909Z,18.87
2018-09-24T09:23:10.292Z,18.24
2018-09-24T09:25:45.159Z,18.47
2018-09-24T09:28:20.068Z,19.18
2018-09-24T09:30:55.033Z,19.30
2018-09-24T09:33:30.012Z,18.58
2018-09-24T09:36:04.786Z,19.85
2018-09-24T09:38:39.538Z,20.41
2018-09-24T09:41:14.439Z,19.94
2018-09-24T09:43:49.354Z,19.72
2018-09-24T09:46:27.228Z,19.45
2018-09-24T09:49:02.019Z,18.67
2018-09-24T09:51:36.883Z,18.35
2018-09-24T09:54:11.761Z,18.12
2018-09-24T09:56:46.538Z,18.10
2018-09-24T09:59:21.691Z,17.82
2018-09-24T10:01:56.567Z,17.68
2018-09-24T10:04:31.283Z,18.58
2018-09-24T10:07:06.215Z,18.72
2018-09-24T10:09:41.185Z,18.71
2018-09-24T10:12:16.151Z,17.98
2018-09-24T10:14:50.798Z,16.69
2018-09-24T10:17:26.642Z,16.26
2018-09-24T10:20:01.701Z,16.63
2018-09-24T10:22:36.672Z,15.59
2018-09-24T10:25:11.703Z,17.10
2018-09-24T10:27:46.982Z,16.15
2018-09-24T10:30:21.777Z,14.42
2018-09-24T10:32:56.777Z,14.59
2018-09-24T10:35:31.653Z,11.30
2018-09-24T10:38:07.363Z,12.00
2018-09-24T10:40:42.179Z,13.27
2018-09-24T10:43:19.315Z,12.17
2018-09-24T10:45:54.603Z,12.27
2018-09-24T10:48:30.318Z,12.88
2018-09-24T10:51:05.314Z,13.11
2018-09-24T10:53:40.216Z,12.75
2018-09-24T10:56:15.185Z,12.13
2018-09-24T10:58:51.129Z,12.36
2018-09-24T11:01:25.970Z,12.62
2018-09-24T11:04:01.944Z,12.25
2018-09-24T11:06:36.912Z,11.94
2018-09-24T11:09:14.150Z,11.32
2018-09-24T11:11:49.169Z,11.89
2018-09-24T11:14:25.101Z,12.40
2018-09-24T11:17:00.645Z,11.18
2018-09-24T11:19:35.765Z,12.34
2018-09-24T11:22:11.598Z,13.16
2018-09-24T11:24:46.598Z,12.44
2018-09-24T11:27:21.630Z,11.78
2018-09-24T11:29:56.696Z,12.31
2018-09-24T11:32:31.392Z,12.79
2018-09-24T11:35:06.792Z,12.09
2018-09-24T11:37:42.321Z,12.92
2018-09-24T11:40:17.881Z,12.52
2018-09-24T11:42:52.636Z,12.67
2018-09-24T11:45:27.642Z,13.24
2018-09-24T11:48:02.653Z,12.14
2018-09-24T11:50:38.731Z,12.16
2018-09-24T11:53:13.595Z,12.07
2018-09-24T11:55:48.509Z,12.16
2018-09-24T11:58:23.545Z,12.27
2018-09-24T12:00:58.293Z,11.95
2018-09-24T12:03:33.187Z,11.85
2018-09-24T12:06:08.182Z,11.89
2018-09-24T12:08:43.106Z,12.07
2018-09-24T12:11:18.645Z,13.25
2018-09-24T12:13:53.466Z,13.43
2018-09-24T12:16:28.253Z,13.64
2018-09-24T12:19:03.217Z,13.96
2018-09-24T12:21:38.700Z,12.36
2018-09-24T12:24:13.708Z,12.35
2018-09-24T12:26:48.379Z,13.01
2018-09-24T12:29:23.324Z,12.96
2018-09-24T12:31:59.230Z,13.68
2018-09-24T12:34:34.187Z,14.17
2018-09-24T12:37:09.314Z,14.49
2018-09-24T12:39:44.262Z,14.33
2018-09-24T12:42:19.846Z,14.30
2018-09-24T12:44:55.007Z,14.40
2018-09-24T12:47:36.954Z,13.69
2018-09-24T12:50:12.169Z,13.84
2018-09-24T12:52:47.049Z,14.12
2018-09-24T12:55:22.923Z,14.05
2018-09-24T12:57:57.796Z,14.54
2018-09-24T13:00:32.522Z,13.81
2018-09-24T13:03:10.314Z,14.53
2018-09-24T13:05:45.118Z,14.14
2018-09-24T13:08:20.256Z,14.41
2018-09-24T13:10:55.955Z,14.09
2018-09-24T13:13:30.928Z,13.97
2018-09-24T13:16:05.826Z,14.94
2018-09-24T13:18:40.882Z,13.54
2018-09-24T13:21:16.503Z,14.90
2018-09-24T13:23:51.161Z,14.45
2018-09-24T13:26:26.150Z,15.21
2018-09-24T13:29:01.032Z,15.12
2018-09-24T13:31:36.742Z,15.04
2018-09-24T13:34:11.657Z,14.48
2018-09-24T13:36:46.683Z,14.38
2018-09-24T13:39:21.600Z,15.49
2018-09-24T13:41:57.013Z,15.50
2018-09-24T13:44:31.588Z,15.58
2018-09-24T13:47:06.618Z,14.92
2018-09-24T13:49:41.403Z,15.60
2018-09-24T13:52:17.267Z,14.48
2018-09-24T13:54:52.047Z,15.78
2018-09-24T13:57:26.969Z,16.40
2018-09-24T14:00:01.879Z,16.57
2018-09-24T14:02:37.618Z,16.63
2018-09-24T14:05:12.371Z,16.85
2018-09-24T14:07:47.269Z,16.57
2018-09-24T14:10:22.175Z,17.05
2018-09-24T14:12:57.722Z,17.04
2018-09-24T14:15:32.610Z,17.04
2018-09-24T14:18:07.569Z,15.93
2018-09-24T14:20:42.315Z,17.28
2018-09-24T14:23:18.538Z,17.45
2018-09-24T14:25:53.338Z,16.41
2018-09-24T14:28:28.105Z,16.67
2018-09-24T14:31:02.992Z,17.07
2018-09-24T14:33:39.191Z,17.53
2018-09-24T14:36:14.329Z,16.88
2018-09-24T14:38:49.227Z,18.50
2018-09-24T14:41:23.898Z,18.66
2018-09-24T14:43:59.822Z,18.68
2018-09-24T14:46:34.543Z,17.98
2018-09-24T14:49:09.224Z,18.23
2018-09-24T14:51:44.117Z,18.17
2018-09-24T14:54:19.304Z,18.54
2018-09-24T14:56:54.075Z,18.68
2018-09-24T14:59:28.964Z,18.37
2018-09-24T15:02:03.913Z,18.34
2018-09-24T15:04:39.211Z,19.32
2018-09-24T15:07:14.102Z,20.08
2018-09-24T15:09:48.922Z,20.13
2018-09-24T15:12:23.652Z,20.00
2018-09-24T15:14:59.009Z,20.74
2018-09-24T15:17:33.826Z,20.79
2018-09-24T15:20:08.877Z,20.83
2018-09-24T15:22:43.740Z,20.73
2018-09-24T15:25:18.916Z,21.66
2018-09-24T15:27:53.746Z,21.79
2018-09-24T15:30:28.694Z,22.04
2018-09-24T15:33:03.589Z,21.37
2018-09-24T15:35:38.442Z,22.79
2018-09-24T15:38:13.152Z,23.23
2018-09-24T15:40:48.059Z,23.47
2018-09-24T15:43:22.941Z,22.82
2018-09-24T15:45:58.625Z,23.75
2018-09-24T15:48:33.531Z,23.08
2018-09-24T15:51:08.477Z,23.31
2018-09-24T15:53:43.403Z,22.95
2018-09-24T15:56:18.985Z,23.09
2018-09-24T15:58:53.670Z,24.34
2018-09-24T16:01:28.641Z,23.84
2018-09-24T16:04:03.591Z,24.72
2018-09-24T16:06:38.726Z,25.01
2018-09-24T16:09:14.892Z,24.79
2018-09-24T16:11:49.821Z,25.25
2018-09-24T16:14:24.693Z,25.04
2018-09-24T16:16:59.555Z,24.93
2018-09-24T16:19:34.299Z,25.12
2018-09-24T16:22:09.284Z,25.29
2018-09-24T16:24:44.111Z,26.13
2018-09-24T16:27:20.913Z,26.30
2018-09-24T16:29:55.768Z,26.10
2018-09-24T16:32:30.648Z,26.10
2018-09-24T16:35:05.474Z,26.65
2018-09-24T16:37:41.043Z,25.87
2018-09-24T16:40:16.004Z,27.42
2018-09-24T16:42:50.961Z,26.80
2018-09-24T16:45:25.829Z,26.83
2018-09-24T16:48:00.940Z,28.12
2018-09-24T16:50:35.750Z,29.35
2018-09-24T16:53:11.018Z,29.43
2018-09-24T16:55:46.081Z,28.95
2018-09-24T16:58:21.825Z,29.87
2018-09-24T17:00:56.875Z,30.51
2018-09-24T17:03:31.766Z,31.53
2018-09-24T17:06:06.750Z,31.82
2018-09-24T17:08:41.723Z,32.51
2018-09-24T17:11:18.114Z,32.83
2018-09-24T17:13:53.142Z,32.97
2018-09-24T17:16:28.058Z,33.02
2018-09-24T17:19:02.954Z,32.80
2018-09-24T17:21:37.925Z,32.33
2018-09-24T17:24:12.824Z,32.98
2018-09-24T17:26:47.529Z,33.15
2018-09-24T17:29:23.195Z,33.31
2018-09-24T17:31:58.261Z,34.11
2018-09-24T17:34:33.229Z,33.96
2018-09-24T17:37:08.084Z,34.35
2018-09-24T17:39:44.095Z,34.48
2018-09-24T17:42:18.903Z,34.74
2018-09-24T17:44:53.838Z,35.65
2018-09-24T17:47:28.565Z,33.70
2018-09-24T17:50:03.847Z,34.26
2018-09-24T17:52:38.682Z,34.53
2018-09-24T17:55:13.590Z,35.26
2018-09-24T17:57:48.289Z,33.88
2018-09-24T18:00:23.887Z,33.72
2018-09-24T18:02:58.512Z,33.76
2018-09-24T18:05:33.297Z,34.81
2018-09-24T18:08:08.187Z,34.15
2018-09-24T18:10:43.624Z,33.48
2018-09-24T18:13:18.317Z,34.21
2018-09-24T18:15:53.184Z,34.11
2018-09-24T18:18:28.021Z,35.70
2018-09-24T18:21:03.321Z,33.93
2018-09-24T18:23:38.089Z,35.40
2018-09-24T18:26:12.846Z,36.10
2018-09-24T18:28:47.673Z,35.87
2018-09-24T18:31:23.274Z,36.31
2018-09-24T18:33:59.073Z,36.29
2018-09-24T18:36:34.001Z,37.84
2018-09-24T18:39:08.872Z,36.58
2018-09-24T18:41:44.370Z,35.44
2018-09-24T18:44:19.307Z,36.12
2018-09-24T18:46:54.070Z,37.61
2018-09-24T18:49:28.956Z,36.41
2018-09-24T18:52:03.979Z,37.73
2018-09-24T18:54:38.774Z,37.66
2018-09-24T18:57:13.771Z,37.65
2018-09-24T18:59:48.614Z,37.26
2018-09-24T19:02:24.499Z,37.41
2018-09-24T19:04:59.293Z,37.21
2018-09-24T19:07:34.205Z,36.46
2018-09-24T19:10:09.015Z,36.89
2018-09-24T19:12:45.049Z,41.00
2018-09-24T19:15:19.864Z,36.50
2018-09-24T19:17:54.704Z,36.96
2018-09-24T19:20:29.640Z,40.06
2018-09-24T19:23:04.986Z,37.11
2018-09-24T19:25:39.970Z,37.89
2018-09-24T19:28:14.895Z,39.94
2018-09-24T19:30:49.761Z,37.48
2018-09-24T19:33:26.019Z,38.16
2018-09-24T19:36:00.992Z,37.94
2018-09-24T19:38:35.971Z,38.41
2018-09-24T19:41:11.526Z,38.14
2018-09-24T19:43:47.218Z,38.83
2018-09-24T19:46:22.001Z,39.61
2018-09-24T19:48:56.853Z,39.55
2018-09-24T19:51:32.119Z,37.50
2018-09-24T19:54:07.894Z,40.60
2018-09-24T19:56:43.375Z,40.12
2018-09-24T19:59:19.142Z,40.08
2018-09-24T20:01:54.085Z,37.26
2018-09-24T20:04:30.016Z,37.34
2018-09-24T20:07:04.978Z,37.88
2018-09-24T20:09:40.016Z,38.08
2018-09-24T20:12:15.031Z,39.17
2018-09-24T20:14:51.854Z,39.52
2018-09-24T20:17:28.007Z,39.21
2018-09-24T20:20:03.883Z,40.03
2018-09-24T20:22:38.862Z,39.28
2018-09-24T20:25:15.731Z,39.08
2018-09-24T20:27:51.026Z,39.67
2018-09-24T20:30:26.599Z,39.46
2018-09-24T20:33:01.653Z,43.31
2018-09-24T20:35:37.866Z,39.88
2018-09-24T20:38:12.742Z,39.43
2018-09-24T20:40:48.422Z,39.24
2018-09-24T20:43:23.479Z,38.81
2018-09-24T20:45:59.357Z,38.88
2018-09-24T20:48:35.482Z,40.27
2018-09-24T20:51:11.070Z,40.64
2018-09-24T20:53:46.089Z,40.14
2018-09-24T20:56:21.373Z,40.73
2018-09-24T20:58:56.252Z,39.21
2018-09-24T21:01:31.153Z,38.11
2018-09-24T21:04:06.006Z,39.78
2018-09-24T21:06:41.584Z,39.11
2018-09-24T21:09:16.572Z,39.02
2018-09-24T21:11:51.731Z,39.96
2018-09-24T21:14:26.876Z,39.81
2018-09-24T21:17:02.038Z,40.96
2018-09-24T21:19:36.955Z,41.05
2018-09-24T21:22:11.940Z,44.38
2018-09-24T21:24:46.806Z,41.51
2018-09-24T21:27:22.637Z,41.23
2018-09-24T21:29:57.547Z,41.91
2018-09-24T21:32:32.501Z,41.60
2018-09-24T21:35:07.553Z,39.96
2018-09-24T21:37:43.429Z,43.54
2018-09-24T21:40:18.285Z,41.43
2018-09-24T21:42:53.240Z,40.59
2018-09-24T21:45:28.213Z,40.44
2018-09-24T21:48:03.024Z,40.97
2018-09-24T21:50:37.928Z,42.38
2018-09-24T21:53:12.967Z,39.17
2018-09-24T21:55:47.898Z,41.03
2018-09-24T21:58:22.855Z,40.20
2018-09-24T22:00:57.658Z,40.11
2018-09-24T22:03:32.645Z,41.36
2018-09-24T22:06:07.634Z,41.03
2018-09-24T22:08:43.116Z,41.75
2018-09-24T22:11:18.000Z,42.34
2018-09-24T22:13:52.837Z,41.65
2018-09-24T22:16:27.835Z,41.09
2018-09-24T22:19:03.570Z,40.73
2018-09-24T22:21:38.451Z,41.26
2018-09-24T22:24:13.385Z,41.20
2018-09-24T22:26:48.463Z,40.68
2018-09-24T22:29:23.821Z,45.60
2018-09-24T22:31:58.656Z,41.01
2018-09-24T22:34:33.741Z,41.02
2018-09-24T22:37:08.770Z,41.47
2018-09-24T22:39:44.153Z,42.18
2018-09-24T22:42:18.981Z,41.70
2018-09-24T22:44:53.892Z,41.67
2018-09-24T22:47:28.807Z,41.15
2018-09-24T22:50:04.070Z,40.45
2018-09-24T22:52:38.861Z,39.87
2018-09-24T22:55:13.478Z,40.08
2018-09-24T22:57:48.373Z,40.15
2018-09-24T23:00:23.858Z,39.97
2018-09-24T23:02:58.810Z,40.57
2018-09-24T23:05:33.601Z,40.53
2018-09-24T23:08:08.599Z,39.59
2018-09-24T23:10:44.036Z,39.92
2018-09-24T23:13:18.873Z,40.66
2018-09-24T23:15:53.889Z,40.05
2018-09-24T23:18:28.769Z,41.19
2018-09-24T23:21:04.097Z,41.25
2018-09-24T23:23:38.952Z,41.43
2018-09-24T23:26:13.911Z,41.03
2018-09-24T23:28:48.809Z,43.29
2018-09-24T23:31:23.870Z,40.49
2018-09-24T23:33:58.874Z,42.07
2018-09-24T23:36:33.775Z,42.71
2018-09-24T23:39:08.656Z,42.97
2018-09-24T23:41:43.432Z,42.88
2018-09-24T23:44:18.283Z,43.69
2018-09-24T23:46:53.130Z,43.64
2018-09-24T23:49:27.844Z,42.92
2018-09-24T23:52:03.301Z,43.15
2018-09-24T23:54:38.124Z,43.29
2018-09-24T23:57:12.972Z,42.30
2018-09-24T23:59:47.791Z,43.52
